Time;durP1;ratioP1;P1;durP2;ratioP2;P2;SDS_P1;SDS_P2;PMS_P1;PMS_P2;Temp;Humidity;BMP_temperature;BMP_pressure;BME280_temperature;BME280_humidity;BME280_pressure;Samples;Min_cycle;Max_cycle;Signal;HPM_P1;HPM_P2
2023/10/20 00:00:22;;;;;;;5.23;3.43;;;16.20;1.00;;;;;;5007497;28;20190;-72
2023/10/20 00:02:47;;;;;;;5.53;3.83;;;16.20;1.00;;;;;;5008926;28;20206;-71
2023/10/20 00:05:13;;;;;;;7.70;3.40;;;16.20;1.00;;;;;;5002109;28;20253;-70
2023/10/20 00:07:40;;;;;;;7.07;3.77;;;16.30;1.00;;;;;;5009350;28;20541;-72
2023/10/20 00:10:09;;;;;;;4.50;3.70;;;16.20;1.00;;;;;;5005407;28;20457;-72
2023/10/20 00:12:35;;;;;;;5.40;3.43;;;16.30;1.00;;;;;;5011454;28;20495;-71
2023/10/20 00:15:01;;;;;;;4.80;3.67;;;16.30;1.00;;;;;;5013120;28;20467;-72
2023/10/20 00:17:26;;;;;;;3.77;3.17;;;16.40;1.00;;;;;;5012532;28;20479;-72
2023/10/20 00:19:52;;;;;;;8.80;4.23;;;16.40;1.00;;;;;;5011521;28;20429;-71
2023/10/20 00:22:17;;;;;;;4.47;3.67;;;16.40;1.00;;;;;;5004900;28;20297;-71
2023/10/20 00:24:45;;;;;;;6.00;4.10;;;16.40;1.00;;;;;;5004383;28;20629;-72
2023/10/20 00:27:13;;;;;;;5.20;3.90;;;16.40;1.00;;;;;;5012709;28;20178;-72
2023/10/20 00:29:39;;;;;;;4.87;3.80;;;16.40;1.00;;;;;;5011112;28;20432;-72
2023/10/20 00:32:05;;;;;;;7.00;3.57;;;16.40;1.00;;;;;;5010301;28;20469;-71
2023/10/20 00:34:31;;;;;;;6.13;3.73;;;16.40;1.00;;;;;;5010930;28;20434;-71
2023/10/20 00:36:56;;;;;;;4.60;3.73;;;16.40;1.00;;;;;;5009606;28;20621;-72
2023/10/20 00:39:23;;;;;;;5.33;3.90;;;16.40;1.00;;;;;;5026338;28;20517;-71
2023/10/20 00:41:48;;;;;;;8.40;4.20;;;16.40;1.00;;;;;;5009426;28;20661;-72
2023/10/20 00:44:14;;;;;;;5.50;4.13;;;14.10;1.00;;;;;;5010285;28;20444;-72
2023/10/20 00:46:43;;;;;;;11.30;3.80;;;16.30;1.00;;;;;;5002700;22;21055;-75
2023/10/20 00:49:09;;;;;;;5.00;3.63;;;16.30;1.00;;;;;;4987818;28;20195;-73
2023/10/20 00:51:35;;;;;;;4.33;3.30;;;16.20;1.00;;;;;;4990699;28;20882;-73
2023/10/20 00:54:01;;;;;;;5.03;3.63;;;16.20;1.00;;;;;;4991134;28;20525;-73
2023/10/20 00:56:28;;;;;;;6.17;3.70;;;16.20;1.00;;;;;;4991160;28;20196;-73
2023/10/20 00:58:54;;;;;;;7.93;4.67;;;16.10;1.00;;;;;;4991338;28;20433;-74
2023/10/20 01:01:20;;;;;;;6.37;4.50;;;16.10;1.00;;;;;;4990088;28;20433;-73
2023/10/20 01:03:45;;;;;;;5.63;3.87;;;16.10;1.00;;;;;;4993467;28;20780;-73
2023/10/20 01:06:11;;;;;;;7.63;4.07;;;16.10;1.00;;;;;;4995251;28;20694;-72
2023/10/20 01:08:37;;;;;;;6.87;3.97;;;16.10;1.00;;;;;;4990722;28;20239;-73
2023/10/20 01:11:02;;;;;;;7.97;4.33;;;16.00;1.00;;;;;;4990542;28;20254;-73
2023/10/20 01:13:28;;;;;;;6.50;4.13;;;16.00;1.00;;;;;;4990725;28;20206;-74
2023/10/20 01:15:54;;;;;;;5.90;4.10;;;16.00;1.00;;;;;;4991000;28;20880;-75
2023/10/20 01:18:20;;;;;;;5.73;3.90;;;15.90;1.00;;;;;;4988966;28;20245;-72
2023/10/20 01:20:45;;;;;;;5.80;4.17;;;15.90;1.00;;;;;;4990547;28;20175;-75
2023/10/20 01:23:11;;;;;;;6.00;4.00;;;15.90;1.00;;;;;;4991006;28;20661;-74
2023/10/20 01:25:36;;;;;;;6.27;3.90;;;15.90;1.00;;;;;;4990170;28;20199;-72
2023/10/20 01:28:03;;;;;;;6.93;4.00;;;15.90;1.00;;;;;;4990754;28;20425;-73
2023/10/20 01:30:29;;;;;;;6.30;4.00;;;15.90;1.00;;;;;;4988670;28;20190;-73
2023/10/20 01:32:54;;;;;;;6.70;4.23;;;15.90;1.00;;;;;;5005422;28;20980;-73
2023/10/20 01:35:20;;;;;;;6.30;4.17;;;15.90;1.00;;;;;;4989841;28;20198;-76
2023/10/20 01:37:46;;;;;;;5.73;4.00;;;15.90;1.00;;;;;;5004801;28;20245;-74
2023/10/20 01:40:12;;;;;;;5.50;3.47;;;15.90;1.00;;;;;;4988326;28;20190;-73
2023/10/20 01:42:38;;;;;;;5.10;3.57;;;16.00;1.00;;;;;;4989482;28;20216;-76
2023/10/20 01:45:05;;;;;;;5.27;3.63;;;15.90;1.00;;;;;;4990096;28;20477;-75
2023/10/20 01:47:31;;;;;;;6.07;4.40;;;16.00;1.00;;;;;;5004242;28;20462;-73
2023/10/20 01:49:56;;;;;;;8.03;4.50;;;16.00;1.00;;;;;;4990320;28;20442;-73
2023/10/20 01:52:22;;;;;;;5.90;4.20;;;16.00;1.00;;;;;;4989542;28;20565;-76
2023/10/20 01:54:48;;;;;;;8.30;4.30;;;16.00;1.00;;;;;;4990215;28;20271;-76
2023/10/20 01:57:13;;;;;;;8.27;4.00;;;16.00;1.00;;;;;;4989551;28;20574;-73
2023/10/20 01:59:39;;;;;;;4.57;3.80;;;16.00;1.00;;;;;;4985584;28;20191;-73
2023/10/20 02:02:04;;;;;;;6.20;4.03;;;16.00;1.00;;;;;;4987680;28;20654;-72
2023/10/20 02:04:30;;;;;;;4.97;3.87;;;16.00;1.00;;;;;;4989457;28;20370;-74
2023/10/20 02:06:56;;;;;;;7.33;4.43;;;16.00;1.00;;;;;;4989917;28;20202;-73
2023/10/20 02:09:23;;;;;;;4.80;3.93;;;16.00;1.00;;;;;;5005022;28;20186;-73
2023/10/20 02:11:57;;;;;;;7.50;3.73;;;16.00;1.00;;;;;;4996479;28;20214;-77
2023/10/20 02:14:23;;;;;;;6.63;4.07;;;15.90;1.00;;;;;;4989803;28;20418;-74
2023/10/20 02:16:48;;;;;;;6.13;3.93;;;15.90;1.00;;;;;;4986803;28;20442;-73
2023/10/20 02:19:15;;;;;;;6.73;4.40;;;15.90;1.00;;;;;;4989725;28;20509;-75
2023/10/20 02:21:41;;;;;;;7.03;4.23;;;15.90;1.00;;;;;;4988707;28;20186;-74
2023/10/20 02:24:07;;;;;;;7.47;4.30;;;15.80;1.00;;;;;;4989969;28;20789;-77
2023/10/20 02:26:33;;;;;;;5.47;3.67;;;15.80;1.00;;;;;;4989038;28;20207;-74
2023/10/20 02:28:59;;;;;;;5.77;4.50;;;15.80;1.00;;;;;;4988291;28;21027;-73
2023/10/20 02:31:24;;;;;;;5.77;3.57;;;15.80;1.00;;;;;;5002454;28;20211;-74
2023/10/20 02:33:51;;;;;;;6.20;4.00;;;15.90;1.00;;;;;;4980893;28;20669;-73
2023/10/20 02:36:21;;;;;;;5.30;4.20;;;15.90;1.00;;;;;;4989162;28;20450;-72
2023/10/20 02:38:48;;;;;;;4.80;3.50;;;16.00;1.00;;;;;;4989066;28;20681;-73
2023/10/20 02:41:16;;;;;;;5.60;3.97;;;15.90;1.00;;;;;;4989378;28;20434;-73
2023/10/20 02:43:42;;;;;;;5.57;3.73;;;15.90;1.00;;;;;;4988791;28;20526;-73
2023/10/20 02:46:08;;;;;;;13.00;3.93;;;15.90;1.00;;;;;;4988604;28;20557;-73
2023/10/20 02:48:34;;;;;;;4.37;3.47;;;15.90;1.00;;;;;;4988296;28;20719;-73
2023/10/20 02:51:13;;;;;;;6.20;4.30;;;15.80;1.00;;;;;;4987201;28;20541;-75
2023/10/20 02:53:39;;;;;;;5.17;3.90;;;15.80;1.00;;;;;;4986159;28;20187;-75
2023/10/20 02:56:15;;;;;;;5.20;3.60;;;15.80;1.00;;;;;;4987281;28;20872;-76
2023/10/20 02:58:44;;;;;;;5.63;4.03;;;15.90;1.00;;;;;;4988124;28;20174;-75
2023/10/20 03:01:13;;;;;;;6.03;3.53;;;15.90;1.00;;;;;;4986282;28;20443;-73
2023/10/20 03:03:39;;;;;;;5.47;4.07;;;15.90;1.00;;;;;;4986117;28;20500;-75
2023/10/20 03:06:06;;;;;;;7.47;4.23;;;15.80;1.00;;;;;;4987651;28;20450;-73
2023/10/20 03:08:32;;;;;;;5.00;3.90;;;15.80;1.00;;;;;;4986925;28;20445;-73
2023/10/20 03:10:58;;;;;;;12.83;4.30;;;15.80;1.00;;;;;;4987391;28;20952;-75
2023/10/20 03:13:25;;;;;;;8.40;4.43;;;15.80;1.00;;;;;;4988833;28;20490;-73
2023/10/20 03:15:51;;;;;;;5.43;3.50;;;15.80;1.00;;;;;;4987961;28;20199;-73
2023/10/20 03:18:16;;;;;;;5.27;4.07;;;15.80;1.00;;;;;;4988584;28;20446;-73
2023/10/20 03:20:46;;;;;;;5.83;4.20;;;15.80;1.00;;;;;;4987080;28;20186;-74
2023/10/20 03:23:13;;;;;;;8.63;4.30;;;15.80;1.00;;;;;;4982524;28;20183;-73
2023/10/20 03:25:40;;;;;;;7.40;3.53;;;15.80;1.00;;;;;;4987647;28;20477;-73
2023/10/20 03:28:06;;;;;;;6.33;3.93;;;15.80;1.00;;;;;;4988801;28;20452;-74
2023/10/20 03:30:41;;;;;;;5.07;3.73;;;15.80;1.00;;;;;;4987133;28;20450;-71
2023/10/20 03:33:12;;;;;;;5.23;3.67;;;15.80;1.00;;;;;;4981341;28;20512;-74
2023/10/20 03:35:38;;;;;;;5.87;3.63;;;15.80;1.00;;;;;;4986518;28;20888;-73
2023/10/20 03:38:06;;;;;;;5.63;3.33;;;15.80;1.00;;;;;;4988454;28;20541;-72
2023/10/20 03:40:36;;;;;;;4.50;3.60;;;15.80;1.00;;;;;;4988103;28;20460;-73
2023/10/20 03:43:06;;;;;;;4.83;3.00;;;15.80;1.00;;;;;;4986810;28;20445;-73
2023/10/20 03:45:41;;;;;;;4.73;3.70;;;15.90;1.00;;;;;;5002451;28;20470;-73
2023/10/20 03:48:08;;;;;;;5.37;3.73;;;15.90;1.00;;;;;;4987995;28;20451;-76
2023/10/20 03:50:36;;;;;;;5.27;3.60;;;15.90;1.00;;;;;;4987299;28;20438;-70
2023/10/20 03:53:01;;;;;;;4.83;3.33;;;15.90;1.00;;;;;;5002778;28;20478;-73
2023/10/20 03:55:27;;;;;;;4.40;3.50;;;15.90;1.00;;;;;;4987734;28;20512;-73
2023/10/20 03:57:52;;;;;;;5.37;3.50;;;15.90;1.00;;;;;;4987832;28;20752;-72
2023/10/20 04:00:18;;;;;;;4.43;3.40;;;15.90;1.00;;;;;;4988117;28;20622;-75
2023/10/20 04:02:47;;;;;;;5.30;3.90;;;15.90;1.00;;;;;;4979080;28;20195;-77
2023/10/20 04:05:16;;;;;;;5.30;3.63;;;15.80;1.00;;;;;;4983359;28;20527;-74
2023/10/20 04:07:41;;;;;;;6.47;3.90;;;15.90;1.00;;;;;;4990594;28;20438;-74
2023/10/20 04:10:07;;;;;;;5.27;3.43;;;15.80;1.00;;;;;;4990862;28;20456;-76
2023/10/20 04:12:33;;;;;;;6.20;3.60;;;15.80;1.00;;;;;;4990207;28;20215;-73
2023/10/20 04:14:59;;;;;;;5.47;3.67;;;15.80;1.00;;;;;;4990117;28;20489;-73
2023/10/20 04:17:24;;;;;;;6.50;3.93;;;15.80;1.00;;;;;;4991477;28;20175;-74
2023/10/20 04:19:50;;;;;;;6.17;4.00;;;15.80;1.00;;;;;;4990968;28;20183;-73
2023/10/20 04:22:16;;;;;;;7.63;4.83;;;15.80;1.00;;;;;;4991065;28;20211;-73
2023/10/20 04:24:44;;;;;;;6.70;3.40;;;15.80;1.00;;;;;;4990234;28;20229;-73
2023/10/20 04:27:21;;;;;;;6.43;4.07;;;15.80;1.00;;;;;;4990369;28;20489;-73
2023/10/20 04:43:41;;;;;;;6.30;3.60;;;15.30;1.00;;;;;;4988941;28;20901;-73
2023/10/20 04:49:45;;;;;;;3.53;3.03;;;15.10;1.00;;;;;;4957924;28;20560;-74
2023/10/20 04:52:06;;;;;;;7.40;4.33;;;15.00;1.00;;;;;;4957045;28;20607;-73
2023/10/20 05:07:53;;;;;;;5.80;3.73;;;14.80;1.00;;;;;;4988445;28;20434;-73
2023/10/20 05:10:20;;;;;;;6.63;4.27;;;14.70;1.00;;;;;;4988928;28;20449;-74
2023/10/20 05:12:48;;;;;;;6.30;3.93;;;14.80;1.00;;;;;;5004076;28;20520;-73
2023/10/20 05:15:15;;;;;;;7.27;4.67;;;14.80;1.00;;;;;;4989817;28;20569;-73
2023/10/20 05:17:40;;;;;;;8.60;4.17;;;14.80;1.00;;;;;;4989919;28;20434;-74
2023/10/20 05:20:12;;;;;;;5.83;3.80;;;14.70;1.00;;;;;;4990068;28;20465;-72
2023/10/20 05:22:41;;;;;;;5.97;4.27;;;14.80;1.00;;;;;;4990033;28;20187;-73
2023/10/20 05:25:08;;;;;;;5.67;3.70;;;14.80;1.00;;;;;;4986198;28;20453;-72
2023/10/20 05:27:34;;;;;;;6.57;4.10;;;14.80;1.00;;;;;;4989131;28;21047;-78
2023/10/20 05:29:59;;;;;;;6.97;3.90;;;14.90;1.00;;;;;;4988479;28;20545;-72
2023/10/20 05:32:25;;;;;;;6.27;3.73;;;14.90;1.00;;;;;;5004520;28;20203;-73
2023/10/20 05:34:53;;;;;;;6.23;3.63;;;14.90;1.00;;;;;;4989608;28;20183;-74
2023/10/20 05:37:21;;;;;;;8.97;3.97;;;14.90;1.00;;;;;;4987047;28;20164;-74
2023/10/20 05:39:47;;;;;;;5.80;3.67;;;14.90;1.00;;;;;;4994851;28;20465;-73
2023/10/20 05:42:12;;;;;;;5.10;3.73;;;14.90;1.00;;;;;;5005798;28;20476;-77
2023/10/20 05:44:47;;;;;;;5.63;3.77;;;15.00;1.00;;;;;;4990430;28;20214;-73
2023/10/20 05:47:13;;;;;;;6.63;3.70;;;15.00;1.00;;;;;;5002320;28;20197;-75
2023/10/20 05:49:39;;;;;;;8.90;4.00;;;15.00;1.00;;;;;;4988853;28;20418;-75
2023/10/20 05:52:05;;;;;;;4.87;3.20;;;15.10;1.00;;;;;;4989655;28;20210;-72
2023/10/20 05:54:31;;;;;;;5.30;3.60;;;15.20;1.00;;;;;;4992001;28;20638;-73
2023/10/20 05:56:57;;;;;;;5.23;3.17;;;15.10;1.00;;;;;;4991006;28;20449;-72
2023/10/20 05:59:22;;;;;;;6.27;4.03;;;15.20;1.00;;;;;;5004927;28;20433;-73
2023/10/20 06:01:48;;;;;;;10.23;3.97;;;15.10;1.00;;;;;;4987661;28;20680;-73
2023/10/20 06:04:13;;;;;;;5.27;3.70;;;15.20;1.00;;;;;;4987368;28;20189;-75
2023/10/20 06:06:39;;;;;;;7.43;4.33;;;15.20;1.00;;;;;;4987399;28;20210;-73
2023/10/20 06:09:06;;;;;;;6.77;4.23;;;15.10;1.00;;;;;;4989774;28;20269;-73
2023/10/20 06:11:35;;;;;;;5.90;3.63;;;15.10;1.00;;;;;;4989185;28;20269;-72
2023/10/20 06:14:00;;;;;;;8.70;4.07;;;15.10;1.00;;;;;;4988504;28;20450;-73
2023/10/20 06:16:26;;;;;;;6.87;4.53;;;15.10;1.00;;;;;;4989028;28;20470;-73
2023/10/20 06:18:52;;;;;;;6.73;4.30;;;15.10;1.00;;;;;;4988560;28;20179;-77
2023/10/20 06:21:17;;;;;;;7.73;4.93;;;15.20;1.00;;;;;;4988826;28;20187;-72
2023/10/20 06:23:43;;;;;;;8.03;4.47;;;15.20;1.00;;;;;;4989190;28;20175;-72
2023/10/20 06:26:09;;;;;;;8.03;5.00;;;15.20;1.00;;;;;;4987672;28;20203;-73
2023/10/20 06:28:35;;;;;;;7.40;4.47;;;15.20;1.00;;;;;;4988061;28;20445;-73
2023/10/20 06:31:12;;;;;;;8.20;4.33;;;15.20;1.00;;;;;;4988762;28;20657;-75
2023/10/20 06:33:38;;;;;;;7.30;4.37;;;15.20;1.00;;;;;;4987885;28;20218;-72
2023/10/20 06:36:18;;;;;;;3.57;3.00;;;15.30;1.00;;;;;;4986897;28;20845;-73
2023/10/20 06:41:09;;;;;;;6.00;3.80;;;15.40;1.00;;;;;;4986936;28;20945;-74
2023/10/20 06:43:35;;;;;;;4.73;3.13;;;15.50;1.00;;;;;;4987525;28;20270;-75
2023/10/20 06:46:00;;;;;;;5.80;3.60;;;15.50;1.00;;;;;;4987003;28;20589;-71
2023/10/20 06:48:27;;;;;;;5.82;3.20;;;15.60;1.00;;;;;;4985937;28;20459;-72
2023/10/20 06:50:53;;;;;;;3.77;2.50;;;15.60;1.00;;;;;;4982151;28;20184;-71
2023/10/20 06:53:19;;;;;;;3.93;2.80;;;15.80;1.00;;;;;;4986651;28;20840;-70
2023/10/20 06:55:55;;;;;;;3.93;2.33;;;16.00;1.00;;;;;;4999940;28;20195;-71
2023/10/20 06:58:20;;;;;;;3.23;2.33;;;16.10;1.00;;;;;;4986073;28;20270;-71
2023/10/20 07:00:46;;;;;;;3.33;2.40;;;16.20;1.00;;;;;;4985842;28;20624;-71
2023/10/20 07:03:13;;;;;;;5.17;2.37;;;16.30;1.00;;;;;;5001588;28;20187;-74
2023/10/20 07:05:40;;;;;;;4.93;2.67;;;16.40;1.00;;;;;;4984042;28;20338;-71
2023/10/20 07:08:06;;;;;;;4.73;2.67;;;16.50;1.00;;;;;;4983776;28;20449;-71
2023/10/20 07:10:39;;;;;;;3.10;1.90;;;16.60;1.00;;;;;;4986815;28;20464;-71
2023/10/20 07:13:08;;;;;;;3.00;2.20;;;16.60;1.00;;;;;;4987701;28;20552;-75
2023/10/20 07:15:37;;;;;;;2.13;1.90;;;16.80;1.00;;;;;;4986820;28;20553;-71
2023/10/20 07:18:04;;;;;;;2.30;1.80;;;16.80;1.00;;;;;;4987326;28;20460;-71
2023/10/20 07:20:30;;;;;;;6.30;2.40;;;16.90;1.00;;;;;;4987524;28;20572;-71
2023/10/20 07:22:56;;;;;;;2.90;2.13;;;16.90;1.00;;;;;;4986439;28;20442;-70
2023/10/20 07:25:22;;;;;;;2.43;1.93;;;16.90;1.00;;;;;;4986853;28;20564;-71
2023/10/20 07:27:48;;;;;;;3.00;2.50;;;16.90;1.00;;;;;;4987816;28;20533;-70
2023/10/20 07:30:16;;;;;;;3.70;2.37;;;17.00;1.00;;;;;;4988344;28;20297;-71
2023/10/20 07:32:42;;;;;;;2.70;2.30;;;18.40;1.00;;;;;;4986447;28;20488;-70
2023/10/20 07:35:08;;;;;;;3.67;2.50;;;17.00;1.00;;;;;;4987926;28;20965;-71
2023/10/20 07:37:34;;;;;;;3.33;2.10;;;17.00;1.00;;;;;;4987599;28;20184;-71
2023/10/20 07:39:59;;;;;;;4.30;2.70;;;17.10;1.00;;;;;;4984624;28;20212;-69
2023/10/20 07:42:25;;;;;;;5.20;2.77;;;17.00;1.00;;;;;;4990496;28;20238;-70
2023/10/20 07:44:50;;;;;;;5.20;2.90;;;17.00;1.00;;;;;;4992190;28;20554;-71
2023/10/20 07:47:16;;;;;;;7.13;3.50;;;17.00;1.00;;;;;;4990329;28;20194;-73
2023/10/20 07:49:41;;;;;;;4.63;3.10;;;17.00;1.00;;;;;;4987115;28;20210;-72
2023/10/20 07:52:08;;;;;;;5.00;3.30;;;16.90;1.00;;;;;;4991490;28;20219;-69
2023/10/20 07:54:33;;;;;;;5.03;3.53;;;16.90;1.00;;;;;;4990841;28;20175;-71
2023/10/20 07:56:59;;;;;;;5.57;3.60;;;16.90;1.00;;;;;;4986854;28;20454;-71
2023/10/20 07:59:25;;;;;;;5.80;4.10;;;16.90;1.00;;;;;;4991974;28;20215;-71
2023/10/20 08:01:50;;;;;;;5.60;3.87;;;16.90;1.00;;;;;;4990152;28;20191;-72
2023/10/20 08:04:16;;;;;;;5.03;3.70;;;16.80;1.00;;;;;;4990778;28;20191;-71
2023/10/20 08:06:43;;;;;;;6.97;3.90;;;16.70;1.00;;;;;;4987765;28;20919;-72
2023/10/20 08:09:12;;;;;;;7.27;4.90;;;16.60;1.00;;;;;;4987736;28;20967;-72
2023/10/20 08:11:39;;;;;;;5.80;4.03;;;16.50;1.00;;;;;;4992276;28;20556;-74
2023/10/20 08:14:05;;;;;;;11.73;4.23;;;16.50;1.00;;;;;;4988235;28;20560;-72
2023/10/20 08:16:30;;;;;;;6.47;5.07;;;16.40;1.00;;;;;;4986600;28;20454;-71
2023/10/20 08:18:56;;;;;;;6.87;4.37;;;16.40;1.00;;;;;;4989007;28;20601;-74
2023/10/20 08:21:26;;;;;;;5.47;4.00;;;16.40;1.00;;;;;;4989389;28;20202;-76
2023/10/20 08:23:51;;;;;;;7.00;4.50;;;16.40;1.00;;;;;;5003585;28;20217;-73
2023/10/20 08:26:19;;;;;;;6.17;4.40;;;16.40;1.00;;;;;;4988588;28;20490;-71
2023/10/20 08:28:45;;;;;;;9.67;5.20;;;16.30;1.00;;;;;;4989095;28;20713;-72
2023/10/20 08:31:13;;;;;;;6.27;4.30;;;16.30;1.00;;;;;;4989965;28;20533;-72
2023/10/20 08:33:39;;;;;;;7.33;4.77;;;16.30;1.00;;;;;;4990649;28;20210;-71
2023/10/20 08:36:22;;;;;;;7.90;5.10;;;16.20;1.00;;;;;;4991050;28;20466;-73
2023/10/20 08:38:49;;;;;;;7.70;5.40;;;16.30;1.00;;;;;;4989731;28;20567;-72
2023/10/20 08:41:23;;;;;;;9.07;5.70;;;16.30;1.00;;;;;;4989338;28;20438;-72
2023/10/20 08:43:50;;;;;;;6.57;4.93;;;16.40;1.00;;;;;;4990781;28;20449;-74
2023/10/20 08:46:17;;;;;;;8.53;5.20;;;16.40;1.00;;;;;;4988432;28;20520;-72
2023/10/20 08:48:47;;;;;;;8.07;5.27;;;16.30;1.00;;;;;;4990995;28;20952;-73
2023/10/20 08:51:17;;;;;;;7.40;5.40;;;16.30;1.00;;;;;;4988269;28;21000;-73
2023/10/20 08:53:44;;;;;;;14.00;5.53;;;16.20;1.00;;;;;;5004412;28;20472;-72
2023/10/20 08:56:11;;;;;;;7.77;4.93;;;16.20;1.00;;;;;;4986340;28;20470;-72
2023/10/20 08:58:37;;;;;;;9.10;4.90;;;16.20;1.00;;;;;;4988896;28;20911;-75
2023/10/20 09:01:05;;;;;;;8.53;5.30;;;16.20;1.00;;;;;;4986620;28;21042;-74
2023/10/20 09:03:43;;;;;;;8.30;5.10;;;16.20;1.00;;;;;;4974550;28;20892;-72
2023/10/20 09:06:12;;;;;;;6.80;5.00;;;16.10;1.00;;;;;;4989022;28;20458;-74
2023/10/20 09:08:39;;;;;;;7.87;4.93;;;15.40;1.00;;;;;;4988563;28;20510;-73
2023/10/20 09:11:08;;;;;;;8.50;4.90;;;16.10;1.00;;;;;;4987739;28;20446;-73
2023/10/20 09:13:37;;;;;;;14.33;5.33;;;16.00;1.00;;;;;;4989801;28;20500;-73
2023/10/20 09:16:10;;;;;;;7.90;5.20;;;16.10;1.00;;;;;;4989118;28;20464;-73
2023/10/20 09:18:45;;;;;;;6.60;5.20;;;16.20;1.00;;;;;;4990788;28;20438;-72
2023/10/20 09:21:19;;;;;;;7.10;5.10;;;16.30;1.00;;;;;;5005969;28;20452;-74
2023/10/20 09:23:59;;;;;;;10.97;6.00;;;16.70;1.00;;;;;;5004884;28;20441;-72
2023/10/20 09:26:27;;;;;;;11.63;5.83;;;17.20;1.00;;;;;;4990251;28;20466;-72
2023/10/20 09:28:54;;;;;;;9.80;6.30;;;17.40;1.00;;;;;;4991171;28;20439;-73
2023/10/20 09:31:21;;;;;;;8.60;6.60;;;17.70;1.00;;;;;;4990282;28;20445;-72
2023/10/20 09:33:47;;;;;;;9.80;6.30;;;18.00;1.00;;;;;;4989428;28;20844;-73
2023/10/20 09:36:13;;;;;;;11.10;6.70;;;18.10;1.00;;;;;;4990072;28;20466;-76
2023/10/20 09:38:39;;;;;;;8.50;5.87;;;18.10;1.00;;;;;;4990124;28;20183;-72
2023/10/20 09:41:14;;;;;;;11.40;6.70;;;18.00;1.00;;;;;;4990127;28;20597;-73
2023/10/20 09:43:52;;;;;;;12.13;6.20;;;17.90;1.00;;;;;;4986011;28;20966;-73
2023/10/20 09:46:35;;;;;;;9.13;6.23;;;18.00;1.00;;;;;;4988811;28;20548;-73
2023/10/20 09:49:10;;;;;;;10.10;6.10;;;18.10;1.00;;;;;;4990365;28;20966;-72
2023/10/20 09:51:37;;;;;;;9.70;5.70;;;18.40;1.00;;;;;;4997591;28;20453;-73
2023/10/20 09:54:03;;;;;;;13.37;6.40;;;18.50;1.00;;;;;;4989713;28;20986;-73
2023/10/20 09:56:29;;;;;;;10.70;6.57;;;18.60;1.00;;;;;;4988834;28;21059;-73
2023/10/20 09:59:00;;;;;;;9.87;6.17;;;18.80;1.00;;;;;;4987659;28;20521;-74
2023/10/20 10:01:26;;;;;;;9.20;6.03;;;18.90;1.00;;;;;;4986613;28;20953;-74
2023/10/20 10:04:03;;;;;;;9.67;6.77;;;19.40;1.00;;;;;;5003551;28;20443;-74
2023/10/20 10:06:37;;;;;;;13.33;7.10;;;19.70;1.00;;;;;;4988976;28;20589;-73
2023/10/20 10:09:07;;;;;;;10.57;6.90;;;19.70;1.00;;;;;;4988355;28;20526;-73
2023/10/20 10:11:39;;;;;;;10.33;6.20;;;19.70;1.00;;;;;;4988063;28;20441;-73
2023/10/20 10:14:05;;;;;;;10.80;6.63;;;19.70;1.00;;;;;;5004945;28;20975;-74
2023/10/20 10:16:32;;;;;;;10.63;6.47;;;20.10;1.00;;;;;;4989373;28;20461;-72
2023/10/20 10:19:08;;;;;;;11.30;6.40;;;21.10;1.00;;;;;;4985990;28;20438;-72
2023/10/20 10:21:38;;;;;;;11.20;6.80;;;21.70;1.00;;;;;;4989035;28;20438;-76
2023/10/20 10:24:07;;;;;;;11.90;7.07;;;21.30;1.00;;;;;;5004393;28;20455;-72
2023/10/20 10:26:33;;;;;;;8.80;6.10;;;20.60;1.00;;;;;;4987661;28;20806;-75
2023/10/20 10:28:59;;;;;;;13.60;7.93;;;20.10;1.00;;;;;;4988587;28;20430;-72
2023/10/20 10:31:36;;;;;;;13.07;7.50;;;19.80;1.00;;;;;;4984918;28;20461;-74
2023/10/20 10:34:05;;;;;;;10.00;6.60;;;19.40;1.00;;;;;;4989511;28;20193;-73
2023/10/20 10:36:47;;;;;;;11.13;7.13;;;19.20;1.00;;;;;;4987885;28;20465;-74
2023/10/20 10:39:29;;;;;;;14.13;6.67;;;19.20;1.00;;;;;;4989231;28;20444;-77
2023/10/20 10:42:01;;;;;;;11.80;6.93;;;19.20;1.00;;;;;;4988699;28;20438;-73
2023/10/20 10:44:33;;;;;;;12.93;7.30;;;19.10;1.00;;;;;;4988263;28;20453;-72
2023/10/20 10:46:58;;;;;;;10.93;7.10;;;19.00;1.00;;;;;;4988281;28;20469;-72
2023/10/20 10:49:24;;;;;;;11.23;6.70;;;18.80;1.00;;;;;;4988554;28;20449;-73
2023/10/20 10:51:52;;;;;;;12.60;6.83;;;18.50;1.00;;;;;;4988722;28;20632;-72
2023/10/20 10:54:18;;;;;;;12.73;7.73;;;18.60;1.00;;;;;;4987860;28;20254;-72
2023/10/20 10:56:44;;;;;;;11.80;6.97;;;18.50;1.00;;;;;;4989062;28;20544;-74
2023/10/20 10:59:11;;;;;;;15.83;6.50;;;18.50;1.00;;;;;;4989326;28;20210;-72
2023/10/20 11:01:39;;;;;;;10.20;6.00;;;18.70;1.00;;;;;;4987747;28;20453;-74
2023/10/20 11:04:07;;;;;;;10.57;5.47;;;18.80;1.00;;;;;;4987028;28;20513;-76
2023/10/20 11:06:36;;;;;;;9.70;5.23;;;18.90;1.00;;;;;;4988830;28;20497;-75
2023/10/20 11:09:05;;;;;;;8.67;5.20;;;18.90;1.00;;;;;;4989056;28;20500;-72
2023/10/20 11:11:31;;;;;;;7.67;4.47;;;18.80;1.00;;;;;;4987644;28;20437;-72
2023/10/20 11:13:57;;;;;;;9.83;4.83;;;18.60;1.00;;;;;;4988076;28;20457;-74
2023/10/20 11:16:23;;;;;;;10.03;5.10;;;18.50;1.00;;;;;;4987964;28;20462;-75
2023/10/20 11:18:49;;;;;;;7.80;4.80;;;18.50;1.00;;;;;;4991723;28;20465;-71
2023/10/20 11:21:15;;;;;;;9.90;4.40;;;18.50;1.00;;;;;;4992945;28;20649;-72
2023/10/20 11:23:49;;;;;;;6.13;4.00;;;18.60;1.00;;;;;;4992942;28;20461;-70
2023/10/20 11:26:17;;;;;;;6.50;4.40;;;18.60;1.00;;;;;;4990730;28;20561;-72
2023/10/20 11:28:44;;;;;;;6.07;4.17;;;18.50;1.00;;;;;;4992483;28;20446;-71
2023/10/20 11:31:10;;;;;;;8.30;3.60;;;18.40;1.00;;;;;;4991194;28;21110;-71
2023/10/20 11:33:35;;;;;;;7.00;3.73;;;18.40;1.00;;;;;;4990738;28;20545;-71
2023/10/20 11:36:03;;;;;;;5.63;3.60;;;18.40;1.00;;;;;;4991680;28;20575;-72
2023/10/20 11:38:28;;;;;;;6.40;3.50;;;18.40;1.00;;;;;;4989171;28;20278;-72
2023/10/20 11:40:54;;;;;;;5.60;3.80;;;18.50;1.00;;;;;;4992834;28;20882;-71
2023/10/20 11:43:20;;;;;;;6.90;3.90;;;18.80;1.00;;;;;;4991905;28;20337;-71
2023/10/20 11:45:45;;;;;;;5.43;3.83;;;19.00;1.00;;;;;;4989796;28;20484;-72
2023/10/20 11:48:11;;;;;;;4.27;3.10;;;19.00;1.00;;;;;;4991347;28;20183;-73
2023/10/20 11:50:36;;;;;;;5.90;3.27;;;19.10;1.00;;;;;;4990292;28;20195;-73
2023/10/20 11:53:02;;;;;;;6.90;3.60;;;19.20;1.00;;;;;;4992685;28;20199;-72
2023/10/20 11:55:27;;;;;;;4.30;2.87;;;19.30;1.00;;;;;;4991434;28;20203;-72
2023/10/20 11:57:53;;;;;;;7.10;3.50;;;19.60;1.00;;;;;;4992271;28;20266;-72
2023/10/20 12:00:19;;;;;;;5.97;3.40;;;20.00;1.00;;;;;;4991429;28;20233;-72
2023/10/20 12:02:44;;;;;;;6.47;3.03;;;20.90;1.00;;;;;;4991442;28;20192;-72
2023/10/20 12:05:10;;;;;;;5.40;2.90;;;21.70;1.00;;;;;;4990409;28;20475;-73
2023/10/20 12:07:37;;;;;;;6.33;3.20;;;22.30;1.00;;;;;;4986457;28;20190;-72
2023/10/20 12:10:05;;;;;;;8.10;3.07;;;22.00;1.00;;;;;;4991680;28;20183;-72
2023/10/20 12:12:31;;;;;;;6.30;3.17;;;21.30;1.00;;;;;;5005804;28;20743;-71
2023/10/20 12:14:57;;;;;;;5.40;2.93;;;20.10;1.00;;;;;;4992281;28;20438;-72
2023/10/20 12:17:24;;;;;;;5.00;3.00;;;20.30;1.00;;;;;;4989308;28;20183;-71
2023/10/20 12:19:50;;;;;;;7.53;3.10;;;19.60;1.00;;;;;;4991003;28;20191;-71
2023/10/20 12:22:17;;;;;;;5.83;2.67;;;19.60;1.00;;;;;;4990382;28;20829;-71
2023/10/20 12:24:43;;;;;;;5.43;2.57;;;19.70;1.00;;;;;;4990738;28;20903;-74
2023/10/20 12:27:09;;;;;;;4.90;2.70;;;19.70;1.00;;;;;;5006209;28;20431;-74
2023/10/20 12:29:35;;;;;;;5.47;2.60;;;19.80;1.00;;;;;;4984366;28;20270;-75
2023/10/20 12:32:02;;;;;;;5.57;2.50;;;19.90;1.00;;;;;;4985237;28;20473;-74
2023/10/20 12:34:28;;;;;;;5.23;2.23;;;19.90;1.00;;;;;;4988184;28;20234;-72
2023/10/20 12:36:54;;;;;;;3.30;2.07;;;20.20;1.00;;;;;;4989216;28;20457;-74
2023/10/20 12:39:20;;;;;;;3.17;1.97;;;20.20;1.00;;;;;;4990538;28;20187;-72
2023/10/20 12:41:46;;;;;;;3.73;1.90;;;20.40;1.00;;;;;;4988178;28;20629;-74
2023/10/20 12:44:12;;;;;;;2.67;1.50;;;20.50;1.00;;;;;;4990483;28;20488;-71
2023/10/20 12:46:38;;;;;;;3.00;1.57;;;20.60;1.00;;;;;;4987279;28;20461;-71
2023/10/20 12:49:06;;;;;;;2.70;1.40;;;20.60;1.00;;;;;;5005442;28;20435;-73
2023/10/20 12:51:33;;;;;;;3.63;1.60;;;20.60;1.00;;;;;;4989061;28;20179;-73
2023/10/20 12:53:59;;;;;;;2.40;1.20;;;20.60;1.00;;;;;;4992522;28;20514;-71
2023/10/20 12:56:25;;;;;;;2.37;1.20;;;20.30;1.00;;;;;;4990134;28;20465;-73
2023/10/20 12:58:51;;;;;;;2.30;1.30;;;20.30;1.00;;;;;;4991064;28;20709;-71
2023/10/20 13:01:16;;;;;;;3.47;1.63;;;20.30;1.00;;;;;;4986609;28;20469;-73
2023/10/20 13:03:42;;;;;;;2.70;1.50;;;20.10;1.00;;;;;;4990949;28;20183;-72
2023/10/20 13:06:08;;;;;;;6.03;1.43;;;20.10;1.00;;;;;;4989443;28;20593;-71
2023/10/20 13:08:33;;;;;;;2.90;1.20;;;20.10;1.00;;;;;;4989035;28;20194;-74
2023/10/20 13:10:59;;;;;;;4.10;1.27;;;19.90;1.00;;;;;;4990554;28;20189;-72
2023/10/20 13:13:24;;;;;;;2.20;1.10;;;19.90;1.00;;;;;;4989372;28;20295;-75
2023/10/20 13:15:50;;;;;;;2.53;1.40;;;19.80;1.00;;;;;;4989228;28;20282;-71
2023/10/20 13:18:16;;;;;;;3.03;1.07;;;19.70;1.00;;;;;;4991544;28;20214;-72
2023/10/20 13:20:43;;;;;;;2.20;1.20;;;19.50;1.00;;;;;;4990999;28;20191;-71
2023/10/20 13:23:09;;;;;;;6.30;1.60;;;19.40;1.00;;;;;;4987122;28;20201;-73
2023/10/20 13:25:35;;;;;;;5.63;1.50;;;19.20;1.00;;;;;;4988343;28;20478;-73
2023/10/20 13:28:00;;;;;;;6.80;1.27;;;19.10;1.00;;;;;;4989642;28;20273;-71